Time;durP1;ratioP1;P1;durP2;ratioP2;P2;SDS_P1;SDS_P2;PMS_P1;PMS_P2;Temp;Humidity;BMP_temperature;BMP_pressure;BME280_temperature;BME280_humidity;BME280_pressure;Samples;Min_cycle;Max_cycle;Signal;HPM_P1;HPM_P2
2022/01/08 00:00:25;;;;;;;3.30;1.67;;;3.00;99.90;;;;;;5045848;28;20487;-66
2022/01/08 00:02:52;;;;;;;3.80;2.10;;;2.90;99.90;;;;;;5045819;28;20463;-66
2022/01/08 00:05:19;;;;;;;5.20;2.67;;;2.90;99.90;;;;;;5045695;28;20456;-66
2022/01/08 00:07:47;;;;;;;4.57;1.73;;;2.90;99.90;;;;;;5046565;28;20455;-66
2022/01/08 00:10:14;;;;;;;3.60;1.73;;;2.90;99.90;;;;;;5055723;28;20464;-64
2022/01/08 00:12:43;;;;;;;2.20;1.30;;;2.80;99.90;;;;;;5062824;28;20452;-65
2022/01/08 00:15:10;;;;;;;3.03;1.63;;;2.80;99.90;;;;;;5061517;28;20451;-65
2022/01/08 00:17:37;;;;;;;2.87;1.63;;;2.80;99.90;;;;;;5047568;28;20460;-65
2022/01/08 00:20:06;;;;;;;3.60;1.73;;;2.70;99.90;;;;;;5045854;28;20487;-64
2022/01/08 00:22:33;;;;;;;2.73;1.73;;;2.70;99.90;;;;;;5051110;28;20470;-65
2022/01/08 00:25:00;;;;;;;3.53;1.90;;;2.80;99.90;;;;;;5052102;28;20452;-66
2022/01/08 00:27:27;;;;;;;4.90;1.90;;;2.80;99.90;;;;;;5058719;28;20451;-65
2022/01/08 00:29:55;;;;;;;4.90;2.10;;;2.90;99.90;;;;;;5061886;28;20456;-66
2022/01/08 00:32:22;;;;;;;2.73;1.97;;;2.90;99.90;;;;;;5063520;28;20448;-65
2022/01/08 00:34:49;;;;;;;3.17;2.00;;;2.90;99.90;;;;;;5062278;28;20450;-64
2022/01/08 00:37:16;;;;;;;3.13;2.30;;;3.00;99.90;;;;;;5062304;28;20459;-65
2022/01/08 00:39:44;;;;;;;4.03;2.00;;;3.10;99.90;;;;;;5057806;28;20487;-65
2022/01/08 00:42:11;;;;;;;6.00;2.87;;;3.10;99.90;;;;;;5061539;28;20455;-65
2022/01/08 00:44:38;;;;;;;3.77;2.73;;;3.20;99.90;;;;;;5061265;28;20443;-65
2022/01/08 00:47:06;;;;;;;3.37;2.07;;;3.20;99.90;;;;;;5066462;28;20783;-65
2022/01/08 00:49:33;;;;;;;3.67;2.40;;;3.20;99.90;;;;;;5066828;28;20546;-64
2022/01/08 00:52:00;;;;;;;3.30;2.37;;;3.20;99.90;;;;;;5066413;28;20483;-65
2022/01/08 00:54:27;;;;;;;4.13;3.03;;;3.20;99.90;;;;;;5065999;28;21296;-64
2022/01/08 00:56:54;;;;;;;4.10;3.10;;;3.20;99.90;;;;;;5062722;28;20540;-65
2022/01/08 00:59:21;;;;;;;3.40;2.70;;;3.30;99.90;;;;;;5070110;28;20497;-65
2022/01/08 01:01:48;;;;;;;5.47;2.87;;;3.30;99.90;;;;;;5069804;28;21012;-64
2022/01/08 01:04:16;;;;;;;3.70;2.50;;;3.20;99.90;;;;;;5070099;28;20447;-65
2022/01/08 01:06:43;;;;;;;4.73;2.97;;;3.30;99.90;;;;;;5069993;28;20447;-64
2022/01/08 01:09:10;;;;;;;4.37;2.60;;;3.40;99.90;;;;;;5063194;28;20558;-65
2022/01/08 01:11:37;;;;;;;4.13;2.90;;;3.30;99.90;;;;;;5067202;28;20439;-65
2022/01/08 01:14:03;;;;;;;3.90;2.73;;;3.30;99.90;;;;;;5052114;28;20454;-65
2022/01/08 01:16:31;;;;;;;3.97;2.77;;;3.40;99.90;;;;;;5051713;28;20798;-65
2022/01/08 01:19:00;;;;;;;3.60;2.70;;;3.30;99.90;;;;;;5052261;28;20468;-65
2022/01/08 01:21:28;;;;;;;3.20;2.37;;;3.30;99.90;;;;;;5052155;28;20997;-65
2022/01/08 01:23:56;;;;;;;3.37;2.07;;;3.40;99.90;;;;;;5051309;28;20441;-65
2022/01/08 01:26:26;;;;;;;3.90;2.70;;;3.40;99.90;;;;;;5051566;28;20456;-65
2022/01/08 01:28:58;;;;;;;5.13;2.80;;;3.40;99.90;;;;;;5052019;28;20833;-65
2022/01/08 01:47:56;;;;;;;3.03;1.90;;;3.50;99.90;;;;;;5071516;28;20837;-65
2022/01/08 01:50:22;;;;;;;3.50;2.13;;;3.50;99.90;;;;;;5071464;28;20439;-66
2022/01/08 01:52:51;;;;;;;2.57;1.50;;;3.60;99.90;;;;;;5071413;28;20443;-65
2022/01/08 01:55:18;;;;;;;4.37;1.57;;;3.60;99.90;;;;;;5069933;28;20450;-65
2022/01/08 01:57:45;;;;;;;2.13;1.33;;;3.60;99.90;;;;;;5071313;28;20443;-65
2022/01/08 02:00:13;;;;;;;3.80;2.13;;;3.60;99.90;;;;;;5071180;28;20853;-65
2022/01/08 02:02:40;;;;;;;3.20;1.90;;;3.60;99.90;;;;;;5070971;28;20457;-65
2022/01/08 02:05:08;;;;;;;2.47;1.80;;;3.60;99.90;;;;;;5071006;28;20455;-65
2022/01/08 02:07:35;;;;;;;3.27;1.63;;;3.60;99.90;;;;;;5071169;28;20439;-66
2022/01/08 02:10:04;;;;;;;4.93;2.60;;;3.70;99.90;;;;;;5070649;28;20558;-65
2022/01/08 02:12:33;;;;;;;3.57;2.00;;;3.70;99.90;;;;;;5070970;28;20465;-66
2022/01/08 02:15:00;;;;;;;2.50;1.37;;;3.70;99.90;;;;;;5070629;28;20517;-65
2022/01/08 02:17:27;;;;;;;4.40;2.00;;;3.70;99.90;;;;;;5070763;28;20476;-65
2022/01/08 02:19:55;;;;;;;2.83;1.80;;;3.80;99.90;;;;;;5070423;28;20467;-65
2022/01/08 02:22:22;;;;;;;2.90;2.20;;;3.80;99.90;;;;;;5070562;28;20452;-65
2022/01/08 02:24:50;;;;;;;4.30;1.70;;;3.80;99.90;;;;;;5070634;28;20451;-65
2022/01/08 02:27:17;;;;;;;2.60;1.80;;;3.80;99.90;;;;;;5070327;28;20933;-66
2022/01/08 02:29:45;;;;;;;3.37;2.03;;;3.80;99.90;;;;;;5070551;28;20472;-65
2022/01/08 02:32:15;;;;;;;3.30;1.80;;;3.80;99.90;;;;;;5070390;28;20473;-66
2022/01/08 02:34:43;;;;;;;2.67;1.70;;;3.90;99.90;;;;;;5070163;28;21018;-66
2022/01/08 02:37:12;;;;;;;5.07;2.13;;;3.90;99.90;;;;;;5070484;28;20455;-66
2022/01/08 02:39:41;;;;;;;3.73;1.90;;;4.00;99.90;;;;;;5070450;28;20562;-66
2022/01/08 02:42:10;;;;;;;3.50;2.07;;;4.00;99.90;;;;;;5070702;28;20491;-66
2022/01/08 02:44:37;;;;;;;3.63;1.90;;;4.00;99.90;;;;;;5070286;28;20443;-68
2022/01/08 02:47:04;;;;;;;3.53;2.23;;;4.10;99.90;;;;;;5070119;28;20448;-67
2022/01/08 02:49:33;;;;;;;2.70;1.57;;;4.10;99.90;;;;;;5070061;28;20467;-67
2022/01/08 02:52:01;;;;;;;2.60;1.50;;;4.00;99.90;;;;;;5070479;28;20455;-66
2022/01/08 02:54:29;;;;;;;3.67;2.20;;;4.00;99.90;;;;;;5070094;28;21183;-66
2022/01/08 02:56:56;;;;;;;3.27;1.93;;;4.00;99.90;;;;;;5070068;28;20440;-66
2022/01/08 02:59:23;;;;;;;4.20;1.90;;;3.90;99.90;;;;;;5070108;28;20561;-66
2022/01/08 03:01:50;;;;;;;3.27;2.30;;;3.90;99.90;;;;;;5069734;28;20484;-66
2022/01/08 03:04:17;;;;;;;2.90;2.17;;;4.00;99.90;;;;;;5069742;28;20447;-67
2022/01/08 03:06:43;;;;;;;2.97;2.27;;;4.00;99.90;;;;;;5069600;28;20527;-67
2022/01/08 03:09:10;;;;;;;2.60;1.67;;;4.00;99.90;;;;;;5069833;28;21064;-66
2022/01/08 03:11:39;;;;;;;2.70;1.90;;;4.00;99.90;;;;;;5070239;28;20455;-66
2022/01/08 03:14:06;;;;;;;5.27;1.90;;;4.10;99.90;;;;;;5070438;28;20500;-65
2022/01/08 03:16:33;;;;;;;3.90;2.30;;;4.10;99.90;;;;;;5069692;28;20451;-66
2022/01/08 03:19:07;;;;;;;3.07;2.20;;;4.10;99.90;;;;;;5069991;28;20478;-66
2022/01/08 03:21:36;;;;;;;2.43;1.50;;;4.10;99.90;;;;;;5070063;28;20479;-66
2022/01/08 03:24:06;;;;;;;2.93;1.77;;;4.20;99.90;;;;;;5070016;28;20505;-66
2022/01/08 03:26:33;;;;;;;2.30;1.40;;;4.20;99.90;;;;;;5069524;28;20483;-66
2022/01/08 03:29:01;;;;;;;3.80;1.50;;;4.30;99.90;;;;;;5069744;28;20467;-67
2022/01/08 03:31:28;;;;;;;2.37;1.20;;;4.30;99.90;;;;;;5069576;28;21107;-67
2022/01/08 03:33:55;;;;;;;3.70;1.93;;;4.30;99.90;;;;;;5069581;28;20530;-65
2022/01/08 03:36:24;;;;;;;2.13;1.20;;;4.40;99.90;;;;;;5069223;28;20543;-66
2022/01/08 03:38:51;;;;;;;2.63;1.40;;;4.40;99.90;;;;;;5069779;28;20466;-67
2022/01/08 03:41:19;;;;;;;3.00;1.30;;;4.40;99.90;;;;;;5069717;28;20483;-67
2022/01/08 03:43:46;;;;;;;2.60;1.50;;;4.40;99.90;;;;;;5069459;28;20447;-67
2022/01/08 03:46:18;;;;;;;3.27;1.50;;;4.40;99.90;;;;;;5070215;28;20447;-68
2022/01/08 03:48:46;;;;;;;2.90;1.70;;;4.30;99.90;;;;;;5070389;28;20471;-67
2022/01/08 03:51:15;;;;;;;3.17;1.40;;;4.30;99.90;;;;;;5070715;28;20451;-68
2022/01/08 03:53:44;;;;;;;2.70;1.50;;;4.20;99.90;;;;;;5069337;28;20466;-68
2022/01/08 03:56:10;;;;;;;4.73;1.70;;;4.10;99.90;;;;;;5068801;28;20964;-67
2022/01/08 03:58:38;;;;;;;5.27;2.03;;;4.10;99.90;;;;;;5069463;28;20471;-67
2022/01/08 04:01:05;;;;;;;2.57;1.70;;;4.10;99.90;;;;;;5069314;28;20490;-67
2022/01/08 04:03:33;;;;;;;2.83;2.03;;;4.10;99.90;;;;;;5069279;28;20816;-67
2022/01/08 04:06:00;;;;;;;5.43;2.50;;;4.00;99.90;;;;;;5069205;28;20539;-66
2022/01/08 04:08:27;;;;;;;3.93;1.87;;;4.00;99.90;;;;;;5069068;28;20459;-66
2022/01/08 04:10:54;;;;;;;3.07;1.87;;;4.00;99.90;;;;;;5069146;28;21175;-66
2022/01/08 04:13:24;;;;;;;4.23;1.80;;;3.90;99.90;;;;;;5069207;28;20454;-66
2022/01/08 04:15:55;;;;;;;3.30;2.00;;;3.80;99.90;;;;;;5068689;28;20948;-67
2022/01/08 04:18:22;;;;;;;3.20;2.20;;;3.80;99.90;;;;;;5070458;28;20497;-66
2022/01/08 04:21:10;;;;;;;3.97;2.23;;;3.80;99.90;;;;;;5073018;28;20528;-66
2022/01/08 04:23:37;;;;;;;3.87;2.03;;;3.70;99.90;;;;;;5073204;28;20451;-66
2022/01/08 04:26:04;;;;;;;4.43;2.50;;;3.70;99.90;;;;;;5072913;28;20455;-70
2022/01/08 04:28:31;;;;;;;2.97;2.30;;;3.70;99.90;;;;;;5073028;28;20463;-67
2022/01/08 04:30:57;;;;;;;3.70;2.40;;;3.70;99.90;;;;;;5073191;28;21123;-67
2022/01/08 04:33:24;;;;;;;4.33;2.30;;;3.70;99.90;;;;;;5072737;28;20949;-66
2022/01/08 04:35:53;;;;;;;3.13;2.30;;;3.70;99.90;;;;;;5072201;28;20449;-65
2022/01/08 04:38:20;;;;;;;2.50;1.60;;;3.70;99.90;;;;;;5072884;28;20463;-65
2022/01/08 04:40:47;;;;;;;3.27;2.20;;;3.80;99.90;;;;;;5072570;28;21023;-65
2022/01/08 04:43:14;;;;;;;3.30;2.27;;;3.80;99.90;;;;;;5072615;28;20453;-66
2022/01/08 04:45:41;;;;;;;3.10;2.10;;;3.80;99.90;;;;;;5072424;28;20455;-67
2022/01/08 04:48:08;;;;;;;3.00;1.93;;;3.90;99.90;;;;;;5072521;28;20452;-66
2022/01/08 04:50:35;;;;;;;4.67;2.37;;;3.90;99.90;;;;;;5072408;28;21144;-65
2022/01/08 04:53:03;;;;;;;3.80;2.33;;;3.90;99.90;;;;;;5072664;28;20447;-65
2022/01/08 04:55:30;;;;;;;3.00;2.30;;;3.90;99.90;;;;;;5072177;28;20443;-65
2022/01/08 04:57:56;;;;;;;3.07;1.83;;;3.90;99.90;;;;;;5072314;28;20454;-65
2022/01/08 05:00:23;;;;;;;3.70;1.83;;;3.90;99.90;;;;;;5072413;28;20458;-67
2022/01/08 05:02:50;;;;;;;2.90;1.80;;;3.90;99.90;;;;;;5072165;28;20558;-65
2022/01/08 05:05:17;;;;;;;3.30;1.53;;;3.80;99.90;;;;;;5072222;28;20443;-65
2022/01/08 05:07:44;;;;;;;3.47;2.03;;;3.70;99.90;;;;;;5072263;28;20534;-65
2022/01/08 05:10:13;;;;;;;3.80;2.30;;;3.70;99.90;;;;;;5072463;28;20911;-65
2022/01/08 05:12:40;;;;;;;2.97;1.40;;;3.60;99.90;;;;;;5072101;28;20439;-65
2022/01/08 05:15:08;;;;;;;2.37;1.53;;;3.50;99.90;;;;;;5071803;28;20553;-64
2022/01/08 05:17:35;;;;;;;3.70;1.63;;;3.40;99.90;;;;;;5071859;28;20446;-65
2022/01/08 05:20:05;;;;;;;3.03;1.43;;;3.30;99.90;;;;;;5072200;28;20635;-63
2022/01/08 05:22:50;;;;;;;2.53;1.33;;;3.20;99.90;;;;;;5072005;28;20940;-66
2022/01/08 05:25:21;;;;;;;3.23;2.00;;;3.20;99.90;;;;;;5071810;28;20470;-64
2022/01/08 05:27:49;;;;;;;3.23;1.37;;;3.10;99.90;;;;;;5071583;28;21028;-66
2022/01/08 05:30:19;;;;;;;2.70;1.53;;;3.10;99.90;;;;;;5071649;28;20466;-65
2022/01/08 05:32:46;;;;;;;2.47;1.60;;;3.10;99.90;;;;;;5071882;28;20444;-65
2022/01/08 05:35:13;;;;;;;2.43;1.70;;;3.10;99.90;;;;;;5071672;28;20457;-65
2022/01/08 05:37:40;;;;;;;2.50;1.77;;;3.10;99.90;;;;;;5071565;28;20458;-64
2022/01/08 05:40:09;;;;;;;3.23;1.80;;;3.10;99.90;;;;;;5071288;28;20486;-64
2022/01/08 05:42:37;;;;;;;2.70;1.90;;;3.10;99.90;;;;;;5071213;28;20484;-65
2022/01/08 05:45:05;;;;;;;3.60;2.30;;;3.10;99.90;;;;;;5071093;28;20454;-65
2022/01/08 05:47:33;;;;;;;2.50;1.50;;;3.00;99.90;;;;;;5071364;28;20823;-65
2022/01/08 05:50:00;;;;;;;3.00;1.60;;;3.00;99.90;;;;;;5071393;28;20463;-65
2022/01/08 05:52:27;;;;;;;2.00;1.20;;;3.00;99.90;;;;;;5071300;28;20529;-65
2022/01/08 05:54:54;;;;;;;3.83;1.60;;;2.90;99.90;;;;;;5070936;28;20451;-66
2022/01/08 05:57:21;;;;;;;2.47;1.23;;;2.90;99.90;;;;;;5070975;28;20445;-66
2022/01/08 05:59:49;;;;;;;1.77;0.80;;;2.90;99.90;;;;;;5071252;28;20475;-65
2022/01/08 06:02:16;;;;;;;1.80;0.87;;;2.80;99.90;;;;;;5070710;28;20483;-67
2022/01/08 06:04:43;;;;;;;1.90;1.10;;;2.90;99.90;;;;;;5070600;28;20534;-65
2022/01/08 06:07:10;;;;;;;1.93;1.00;;;2.90;99.90;;;;;;5070909;28;20447;-66
2022/01/08 06:09:36;;;;;;;2.67;1.40;;;2.90;99.90;;;;;;5070789;28;20463;-66
2022/01/08 06:12:04;;;;;;;2.40;1.30;;;2.90;99.90;;;;;;5070612;28;21017;-66
2022/01/08 06:14:31;;;;;;;2.57;1.20;;;2.90;99.90;;;;;;5070571;28;20444;-67
2022/01/08 06:16:59;;;;;;;1.60;0.87;;;2.90;99.90;;;;;;5070810;28;20443;-65
2022/01/08 06:19:26;;;;;;;1.80;0.60;;;2.80;99.90;;;;;;5070615;28;20566;-66
2022/01/08 06:21:52;;;;;;;2.07;0.80;;;2.80;99.90;;;;;;5070815;28;20482;-65
2022/01/08 06:24:19;;;;;;;1.73;1.03;;;2.70;99.90;;;;;;5070686;28;20531;-66
2022/01/08 06:26:46;;;;;;;2.37;1.07;;;2.70;99.90;;;;;;5070460;28;20835;-67
2022/01/08 06:29:13;;;;;;;2.40;1.23;;;2.70;99.90;;;;;;5070486;28;20473;-66
2022/01/08 06:31:40;;;;;;;1.60;0.90;;;2.70;99.90;;;;;;5070538;28;20951;-67
2022/01/08 06:34:08;;;;;;;1.70;1.00;;;2.60;99.90;;;;;;5070356;28;20454;-66
2022/01/08 06:36:35;;;;;;;3.30;1.10;;;2.60;99.90;;;;;;5069922;28;21066;-65
2022/01/08 06:39:02;;;;;;;1.90;0.87;;;2.60;99.90;;;;;;5070519;28;20469;-67
2022/01/08 06:41:29;;;;;;;2.00;1.00;;;2.60;99.90;;;;;;5069739;28;20566;-66
2022/01/08 06:43:56;;;;;;;3.70;1.20;;;2.60;99.90;;;;;;5070714;28;20449;-66
2022/01/08 06:46:24;;;;;;;2.00;1.10;;;2.60;99.90;;;;;;5070352;28;21300;-66
2022/01/08 06:48:51;;;;;;;2.30;1.20;;;2.60;99.90;;;;;;5070409;28;20475;-67
2022/01/08 06:51:19;;;;;;;2.37;1.10;;;2.60;99.90;;;;;;5070271;28;20449;-67
2022/01/08 06:53:46;;;;;;;2.27;1.00;;;2.60;99.90;;;;;;5070892;28;20443;-68
2022/01/08 06:56:13;;;;;;;2.50;1.30;;;2.70;99.90;;;;;;5070262;28;20451;-66
2022/01/08 06:58:41;;;;;;;2.10;1.30;;;2.70;99.90;;;;;;5070167;28;20582;-66
2022/01/08 07:01:08;;;;;;;2.67;1.20;;;2.70;99.90;;;;;;5070305;28;20561;-67
2022/01/08 07:03:35;;;;;;;1.97;0.97;;;2.80;99.90;;;;;;5069976;28;21091;-66
2022/01/08 07:06:01;;;;;;;2.30;1.60;;;2.70;99.90;;;;;;5069834;28;20447;-67
2022/01/08 07:08:30;;;;;;;2.40;1.40;;;2.70;99.90;;;;;;5070002;28;20467;-68
2022/01/08 07:10:56;;;;;;;4.30;1.93;;;2.70;99.90;;;;;;5070104;28;20449;-66
2022/01/08 07:13:23;;;;;;;2.07;1.40;;;2.70;99.90;;;;;;5069476;28;20458;-64
2022/01/08 07:15:50;;;;;;;2.60;1.50;;;2.70;99.90;;;;;;5068986;28;20443;-63
2022/01/08 07:18:17;;;;;;;2.83;1.97;;;2.70;99.90;;;;;;5068906;28;20460;-66
2022/01/08 07:20:44;;;;;;;2.97;1.87;;;2.70;99.90;;;;;;5069170;28;20451;-66
2022/01/08 07:23:10;;;;;;;2.60;1.80;;;2.70;99.90;;;;;;5068965;28;20517;-66
2022/01/08 07:25:39;;;;;;;2.63;1.70;;;2.60;99.90;;;;;;5068893;28;20448;-66
2022/01/08 07:28:06;;;;;;;3.83;1.53;;;2.60;99.90;;;;;;5068964;28;20440;-66
2022/01/08 07:30:33;;;;;;;2.40;1.43;;;2.50;99.90;;;;;;5069178;28;20439;-66
2022/01/08 07:33:00;;;;;;;4.20;2.43;;;2.50;99.90;;;;;;5068881;28;20439;-66
2022/01/08 07:35:26;;;;;;;3.30;2.10;;;2.50;99.90;;;;;;5068914;28;20447;-67
2022/01/08 07:37:54;;;;;;;3.50;2.30;;;2.40;99.90;;;;;;5068803;28;21030;-66
2022/01/08 07:40:22;;;;;;;3.17;2.13;;;2.40;99.90;;;;;;5068818;28;20447;-66
2022/01/08 07:42:51;;;;;;;6.10;2.40;;;2.40;99.90;;;;;;5068819;28;20479;-67
2022/01/08 07:45:19;;;;;;;5.17;2.87;;;2.40;99.90;;;;;;5068747;28;20474;-66
2022/01/08 07:47:46;;;;;;;4.10;3.10;;;2.40;99.90;;;;;;5069067;28;20455;-66
2022/01/08 07:50:14;;;;;;;4.00;3.00;;;2.40;99.90;;;;;;5068783;28;20468;-66
2022/01/08 07:52:42;;;;;;;7.33;4.00;;;2.40;99.90;;;;;;5068881;28;20440;-66
2022/01/08 07:55:10;;;;;;;4.83;3.90;;;2.40;99.90;;;;;;5068636;28;20447;-66
2022/01/08 07:57:37;;;;;;;5.90;4.13;;;2.40;99.90;;;;;;5068834;28;20443;-65
2022/01/08 08:00:07;;;;;;;4.43;3.27;;;2.30;99.90;;;;;;5068556;28;20472;-64
2022/01/08 08:02:34;;;;;;;5.90;3.23;;;2.30;99.90;;;;;;5068565;28;20570;-64
2022/01/08 08:05:00;;;;;;;5.20;3.73;;;2.30;99.90;;;;;;5068301;28;20937;-64
2022/01/08 08:07:29;;;;;;;5.57;3.90;;;2.30;99.90;;;;;;5068904;28;20448;-64
2022/01/08 08:09:56;;;;;;;4.10;3.70;;;2.30;99.90;;;;;;5068533;28;20468;-64
2022/01/08 08:12:23;;;;;;;4.57;3.30;;;2.40;99.90;;;;;;5068575;28;20436;-66
2022/01/08 08:14:50;;;;;;;3.80;2.73;;;2.40;99.90;;;;;;5068751;28;20462;-65
2022/01/08 08:17:18;;;;;;;9.17;3.27;;;2.50;99.90;;;;;;5068970;28;20617;-64
2022/01/08 08:19:45;;;;;;;4.87;3.00;;;2.60;99.90;;;;;;5068635;28;20900;-64
2022/01/08 08:22:12;;;;;;;5.30;2.37;;;2.60;99.90;;;;;;5068626;28;21104;-65
2022/01/08 08:24:39;;;;;;;3.20;2.50;;;2.60;99.90;;;;;;5068781;28;20447;-65
2022/01/08 08:27:06;;;;;;;7.97;2.70;;;2.70;99.90;;;;;;5068821;28;20446;-65
2022/01/08 08:29:33;;;;;;;5.77;2.90;;;2.70;99.90;;;;;;5065199;28;21000;-64
2022/01/08 08:32:00;;;;;;;4.97;2.57;;;2.70;99.90;;;;;;5062408;28;20466;-64
2022/01/08 08:34:28;;;;;;;5.07;2.50;;;2.80;99.90;;;;;;5061997;28;20451;-64
2022/01/08 08:36:55;;;;;;;3.63;2.77;;;2.80;99.90;;;;;;5062523;28;20472;-64
2022/01/08 08:39:22;;;;;;;3.30;2.50;;;2.80;99.90;;;;;;5061901;28;20561;-64
2022/01/08 08:41:48;;;;;;;3.60;2.20;;;2.90;99.90;;;;;;5065897;28;20980;-64
2022/01/08 08:44:15;;;;;;;3.27;2.13;;;3.00;99.90;;;;;;5061526;28;20460;-64
2022/01/08 08:46:42;;;;;;;5.40;1.93;;;3.00;99.90;;;;;;5062610;28;20452;-64
2022/01/08 08:49:09;;;;;;;3.17;1.97;;;3.00;99.90;;;;;;5060488;28;20479;-65
2022/01/08 08:51:38;;;;;;;4.70;1.73;;;3.10;99.90;;;;;;5059123;28;20449;-65
2022/01/08 08:54:04;;;;;;;3.20;1.73;;;3.10;99.90;;;;;;5058366;28;20443;-64
2022/01/08 08:56:32;;;;;;;2.90;1.60;;;3.10;99.90;;;;;;5057826;28;20512;-64
2022/01/08 08:58:59;;;;;;;5.00;1.97;;;3.20;99.90;;;;;;5065288;28;21024;-64
2022/01/08 09:01:26;;;;;;;3.43;1.80;;;3.20;99.90;;;;;;5064376;28;20473;-64
2022/01/08 09:03:53;;;;;;;3.10;2.00;;;3.20;99.90;;;;;;5065812;28;21000;-64
2022/01/08 09:06:20;;;;;;;3.97;2.00;;;3.30;99.90;;;;;;5066289;28;20450;-64
2022/01/08 09:08:48;;;;;;;5.37;1.70;;;3.30;99.90;;;;;;5067410;28;20467;-64
2022/01/08 09:11:15;;;;;;;4.87;2.20;;;3.30;99.90;;;;;;5064637;28;20526;-63
2022/01/08 09:13:42;;;;;;;2.63;1.53;;;3.30;99.90;;;;;;5066233;28;20956;-63
2022/01/08 09:16:09;;;;;;;3.33;1.90;;;3.40;99.90;;;;;;5069534;28;20451;-63
2022/01/08 09:18:37;;;;;;;6.40;1.73;;;3.40;99.90;;;;;;5064895;28;20547;-63
2022/01/08 09:21:04;;;;;;;3.53;1.80;;;3.30;99.90;;;;;;5070265;28;20871;-63
2022/01/08 09:23:31;;;;;;;3.93;2.10;;;3.40;99.90;;;;;;5070376;28;20478;-63
2022/01/08 09:26:00;;;;;;;4.20;2.17;;;3.40;99.90;;;;;;5071062;28;20520;-64
2022/01/08 09:28:27;;;;;;;5.33;2.27;;;3.50;99.90;;;;;;5070879;28;20479;-63
2022/01/08 09:30:55;;;;;;;4.00;2.10;;;3.50;99.90;;;;;;5069631;28;20505;-64
2022/01/08 09:33:22;;;;;;;3.57;2.30;;;3.60;99.90;;;;;;5070099;28;20469;-64
2022/01/08 09:35:49;;;;;;;6.43;2.60;;;3.60;99.90;;;;;;5060452;28;20462;-63
2022/01/08 09:38:16;;;;;;;3.90;2.00;;;3.70;99.90;;;;;;5060718;28;20549;-64
2022/01/08 09:40:44;;;;;;;3.40;2.17;;;3.80;99.90;;;;;;5063017;28;20443;-64
2022/01/08 09:43:13;;;;;;;5.63;2.27;;;3.70;99.90;;;;;;5062159;28;20490;-62
2022/01/08 09:45:39;;;;;;;4.90;2.53;;;3.70;99.90;;;;;;5061689;28;20471;-62
2022/01/08 09:48:07;;;;;;;3.93;2.30;;;3.70;99.90;;;;;;5064118;28;20462;-65
2022/01/08 09:50:34;;;;;;;4.53;1.80;;;3.70;99.90;;;;;;5065504;28;20461;-64
2022/01/08 09:53:01;;;;;;;7.00;2.37;;;3.70;99.90;;;;;;5060607;28;20480;-64
2022/01/08 09:55:29;;;;;;;4.60;1.90;;;3.70;99.90;;;;;;5067176;28;20442;-64
2022/01/08 09:57:56;;;;;;;3.60;2.07;;;3.70;99.90;;;;;;5058693;28;20450;-63
2022/01/08 10:00:25;;;;;;;5.90;1.73;;;3.70;99.90;;;;;;5066033;28;20547;-64
2022/01/08 10:02:52;;;;;;;3.80;2.20;;;3.70;99.90;;;;;;5066723;28;20487;-63
2022/01/08 10:05:20;;;;;;;5.60;2.70;;;3.80;99.90;;;;;;5062663;28;20452;-66
2022/01/08 10:07:59;;;;;;;6.20;3.27;;;3.90;99.90;;;;;;5066282;28;20535;-63
2022/01/08 10:10:27;;;;;;;4.17;2.03;;;4.10;99.90;;;;;;5064062;28;20447;-63
2022/01/08 10:12:58;;;;;;;4.33;2.20;;;4.00;99.90;;;;;;5066880;28;20455;-64
2022/01/08 10:18:22;;;;;;;4.43;2.03;;;4.20;99.90;;;;;;5060997;28;21088;-64
2022/01/08 10:20:49;;;;;;;5.70;2.70;;;4.30;99.90;;;;;;5065289;28;20501;-68
2022/01/08 10:23:19;;;;;;;4.20;2.33;;;4.50;99.90;;;;;;5066891;28;20486;-63
2022/01/08 10:26:01;;;;;;;3.47;2.47;;;4.80;99.90;;;;;;5067158;28;20443;-63
2022/01/08 10:28:39;;;;;;;6.87;2.37;;;5.00;99.90;;;;;;5067506;28;20486;-64
2022/01/08 10:31:16;;;;;;;2.80;1.90;;;4.70;99.90;;;;;;5060109;28;20459;-64
2022/01/08 10:33:48;;;;;;;5.50;2.87;;;4.50;99.90;;;;;;5066128;28;20439;-63
2022/01/08 10:36:20;;;;;;;3.27;2.07;;;4.30;99.90;;;;;;5063324;28;20455;-63
2022/01/08 10:38:51;;;;;;;5.27;4.10;;;4.20;99.90;;;;;;5059653;28;20472;-64
2022/01/08 10:41:17;;;;;;;4.03;2.20;;;4.00;99.90;;;;;;5067041;28;20514;-64
2022/01/08 10:43:45;;;;;;;5.43;2.80;;;3.90;99.90;;;;;;5059841;28;20487;-63
2022/01/08 10:46:16;;;;;;;4.57;2.60;;;3.80;99.90;;;;;;5065692;28;20439;-63
2022/01/08 10:48:45;;;;;;;4.50;2.43;;;3.80;99.90;;;;;;5066260;28;20463;-64
2022/01/08 10:51:16;;;;;;;4.23;3.47;;;3.80;99.90;;;;;;5061828;28;20450;-63
2022/01/08 10:53:54;;;;;;;5.27;2.30;;;3.80;99.90;;;;;;5067294;28;20563;-64
2022/01/08 10:56:23;;;;;;;5.10;2.40;;;4.00;99.90;;;;;;5067105;28;20447;-63
2022/01/08 10:58:52;;;;;;;6.63;2.90;;;4.00;99.90;;;;;;5067187;28;20469;-64
2022/01/08 11:01:39;;;;;;;7.03;2.47;;;3.80;99.90;;;;;;5067600;28;20462;-64
2022/01/08 11:04:07;;;;;;;4.70;2.27;;;3.70;99.90;;;;;;5067004;28;20852;-64
2022/01/08 11:06:34;;;;;;;7.33;2.80;;;3.60;99.90;;;;;;5067182;28;20822;-65
2022/01/08 11:09:02;;;;;;;3.80;1.77;;;3.60;99.90;;;;;;5064672;28;20466;-64
2022/01/08 11:11:30;;;;;;;4.97;1.97;;;3.60;99.90;;;;;;5067314;28;20573;-63
2022/01/08 11:14:04;;;;;;;5.20;2.20;;;3.70;99.90;;;;;;5062146;28;20444;-64
2022/01/08 11:16:32;;;;;;;6.57;2.40;;;3.80;99.90;;;;;;5066770;28;20444;-65
2022/01/08 11:19:02;;;;;;;8.43;2.70;;;4.00;99.90;;;;;;5067952;28;20811;-65
2022/01/08 11:21:31;;;;;;;5.30;2.17;;;4.50;99.90;;;;;;5057182;28;20455;-65
2022/01/08 11:23:59;;;;;;;3.77;1.80;;;4.80;99.90;;;;;;5067751;28;20510;-65
2022/01/08 11:26:27;;;;;;;2.83;1.70;;;4.90;99.90;;;;;;5067111;28;20451;-64
2022/01/08 11:29:00;;;;;;;4.23;2.30;;;4.80;99.90;;;;;;5067692;28;20467;-65
2022/01/08 11:31:29;;;;;;;5.37;1.90;;;5.10;99.90;;;;;;5066387;28;20447;-65
2022/01/08 11:34:05;;;;;;;2.53;1.40;;;5.30;99.90;;;;;;5062972;28;20455;-65
2022/01/08 11:36:35;;;;;;;5.90;2.47;;;5.40;99.90;;;;;;5068103;28;20447;-65
2022/01/08 11:39:02;;;;;;;5.87;2.10;;;5.50;99.90;;;;;;5053274;28;20474;-66
2022/01/08 11:41:30;;;;;;;5.47;2.23;;;5.40;99.90;;;;;;5056694;28;21221;-65
2022/01/08 11:43:57;;;;;;;4.43;1.97;;;5.20;99.90;;;;;;5053304;28;20484;-64
2022/01/08 11:46:24;;;;;;;7.17;2.77;;;5.10;99.90;;;;;;5062792;28;20439;-65
2022/01/08 11:48:55;;;;;;;4.30;1.57;;;5.00;99.90;;;;;;5064944;28;20550;-65
2022/01/08 11:51:24;;;;;;;3.23;1.97;;;4.90;99.90;;;;;;5062710;28;20446;-65
2022/01/08 11:53:54;;;;;;;3.23;1.63;;;4.90;99.90;;;;;;5062715;28;20444;-65
2022/01/08 11:56:25;;;;;;;3.87;2.00;;;4.80;99.90;;;;;;5048956;28;20442;-65
2022/01/08 11:59:06;;;;;;;6.53;1.57;;;4.90;99.90;;;;;;5065408;28;20456;-65
2022/01/08 12:01:34;;;;;;;4.30;1.83;;;5.20;99.90;;;;;;5065125;28;20452;-65
2022/01/08 12:04:01;;;;;;;3.40;1.77;;;5.40;99.90;;;;;;5065526;28;20479;-62
2022/01/08 12:06:34;;;;;;;3.73;1.67;;;5.60;99.90;;;;;;5065151;28;20458;-65
2022/01/08 12:09:19;;;;;;;4.00;1.77;;;5.70;99.90;;;;;;5065303;28;20459;-64
2022/01/08 12:11:52;;;;;;;5.13;1.87;;;5.50;99.90;;;;;;5065505;28;20443;-65
2022/01/08 12:14:21;;;;;;;2.73;1.67;;;5.30;99.90;;;;;;5058066;28;20454;-65
2022/01/08 12:16:49;;;;;;;4.20;1.80;;;5.40;99.90;;;;;;5056706;28;20539;-65
2022/01/08 12:19:32;;;;;;;5.07;1.97;;;5.50;99.90;;;;;;5053320;28;20490;-64
2022/01/08 12:22:00;;;;;;;7.50;1.67;;;5.50;99.90;;;;;;5060107;28;20459;-64
2022/01/08 12:24:38;;;;;;;2.60;1.50;;;5.40;99.90;;;;;;5059454;28;20479;-65
2022/01/08 12:27:22;;;;;;;3.43;1.97;;;5.40;99.90;;;;;;5050671;28;20445;-65
2022/01/08 12:29:50;;;;;;;3.40;1.50;;;5.40;99.90;;;;;;5050356;28;20468;-66
2022/01/08 12:32:31;;;;;;;5.23;2.70;;;5.40;99.90;;;;;;5043910;28;20451;-65
2022/01/08 12:35:22;;;;;;;6.80;1.90;;;5.40;99.90;;;;;;5047604;28;21830;-64
2022/01/08 12:37:51;;;;;;;4.30;1.63;;;5.30;99.90;;;;;;5056592;28;20510;-67
2022/01/08 12:40:39;;;;;;;3.47;1.73;;;5.30;99.90;;;;;;5063750;28;20463;-65
2022/01/08 12:43:29;;;;;;;2.70;1.60;;;5.40;99.90;;;;;;5052760;28;20458;-65
2022/01/08 12:46:20;;;;;;;3.27;1.40;;;5.40;99.90;;;;;;5062214;28;21082;-65
2022/01/08 12:49:10;;;;;;;4.83;2.03;;;5.50;99.90;;;;;;5060938;28;20544;-65
2022/01/08 12:52:13;;;;;;;5.90;1.70;;;5.40;99.90;;;;;;5060224;28;20534;-64
2022/01/08 12:54:44;;;;;;;4.80;1.70;;;5.50;99.90;;;;;;5064799;28;20497;-64
2022/01/08 12:57:13;;;;;;;6.37;2.00;;;5.50;99.90;;;;;;5056218;28;20819;-64
2022/01/08 12:59:41;;;;;;;4.97;1.67;;;5.40;99.90;;;;;;5067811;28;21001;-63
2022/01/08 13:02:10;;;;;;;3.00;1.40;;;5.20;99.90;;;;;;5068519;28;20546;-63
2022/01/08 13:04:39;;;;;;;2.67;2.07;;;5.10;99.90;;;;;;5067051;28;20502;-63
2022/01/08 13:07:06;;;;;;;5.07;1.87;;;5.00;99.90;;;;;;5057822;28;22055;-64
2022/01/08 13:09:33;;;;;;;4.07;2.20;;;4.90;99.90;;;;;;5063837;28;21250;-63
2022/01/08 13:12:01;;;;;;;3.40;1.70;;;4.80;99.90;;;;;;5066608;28;20490;-63
2022/01/08 13:14:30;;;;;;;3.37;1.90;;;4.80;99.90;;;;;;5059822;28;20451;-63
2022/01/08 13:16:58;;;;;;;4.33;1.97;;;4.80;99.90;;;;;;5064297;28;20475;-63
2022/01/08 13:19:27;;;;;;;4.60;1.97;;;4.80;99.90;;;;;;5061619;28;20486;-64
2022/01/08 13:21:56;;;;;;;3.77;1.60;;;4.80;99.90;;;;;;5059329;28;20455;-64
2022/01/08 13:24:25;;;;;;;5.03;2.03;;;4.90;99.90;;;;;;5059325;28;20487;-64